Share

Decker, MT

Tongue River Reservoir (KMTDECKE2) Elev 3415 ft | 45.13 °N, 106.78 °W | Change Station

Current weather conditions updated 1 second ago

Clear
Clear
42.9 °F
Feels Like 43 °F
N
0.0
Wind Variable Wind from NW
Gusts 0.0 mph
Sunrise 6:20 AM
Sunset 7:53 PM
Moon Waning Gibbous

Tomorrow is forecast to be Much Warmer than today.

Pressure 30.08 in
Visibility 10.0 miles
Clouds Clear
Windchill 43 °F
Dew Point 38 °F
Humidity 82%
Rainfall 0.00 in
Snow Depth Not available.
UV 0 out of 16
Pollen 5.10 out of 12
Air Quality Not available.
Flu Activity Sporadic
METAR KSHR 170053Z AUTO 18009KT 10SM CLR 03/01 A3002 RMK AO2 SLP186 T00330006

More Conditions Fewer Conditions

Pressure 30.08 in
Visibility 10.0 miles
Clouds Clear
Windchill 43 °F
Dew Point 38 °F
Humidity 82%
Rainfall 0.00 in
Snow Depth Not available.
UV 0 out of 16
Pollen 5.10 out of 12
Air Quality Not available.
Flu Activity Sporadic
METAR KSHR 170053Z AUTO 18009KT 10SM CLR 03/01 A3002 RMK AO2 SLP186 T00330006

More Conditions Fewer Conditions

10-Day Forecast

Almanac

Astronomy

Apr. 16, 2014 Rise Set
Actual Time 6:20 AM MDT 7:53 PM MDT
Civil Twilight 5:49 AM MDT 8:24 PM MDT
Nautical Twilight 5:11 AM MDT 9:02 PM MDT
Astronomical Twilight 4:31 AM MDT 9:42 PM MDT
Moon 9:44 PM MDT (4/16) 7:06 AM MDT (4/16)
Length of Visible Light 14h 35m
Length of Day
13h 33m
Tomorrow will be 3m 0s longer.
Waning Gibbous, 96% of the Moon is Illuminated
Today
Waning Gibbous
Apr 22
Last Quarter
Apr 29
New
May 6
First Quarter
May 14
Full

Today's Extremes

State Highs State Lows

Community

  • symphony in blue....
    symphony in blue....
  • Dawn Surprise
    Dawn Surprise
  • Yucca delight
    Yucca delight
  • Sunset inside of the Ocean
    Sunset inside of the Ocean
  • Lunar eclipse 15 April 2014
    Lunar eclipse 15 April 2014

WunderPhotos

Upload Photos

1,701,783 photos uploaded!

WunderBlogs® & News

Nearby

Snow Depth

Station Depth Elevation
Cole Creek 82 in 7850 ft
Burnt Mountain 32 in 5880 ft
White Mill 97 in 8700 ft
Northeast Entrance 40 in 7350 ft
Placer Basin 86 in 8830 ft

Coastal Water Temperatures

Place Temperature
No Stations Reporting

Earthquake Activity

City Distance Mag. Time & Date
No recent earthquake activity has been reported nearby.
Minimum magnitude displayed is 2.5.

Nearby Weather Stations

Station Location Temp. Windchill Dew Point Humidity Wind Precip. Elev Updated Type
Tongue River Reservoir, Decker, MT 42.9 °F 43 °F 38 °F 82% NW  at  0.0 mph 0.00 in / hr 3415 ft 7:28 PM MDT Rapid Fire
RAWS ASHLAND PORTABLE MT, Birney, MT 42 °F 37 °F 27 °F 54% NNE  at  9 mph 0.00 in / hr 3934 ft 6:54 PM MDT MADIS

Show More Stations Show Fewer Stations

What do you think?

We're not finished. Please let us know what you like, what you don't like, and what you are still missing.